Ship Status Report: callsign LEFO3

sailwx.info

Track history (hours):
 
Tides and Currents Weather Stations Pressure Air Temp Water Temp Dewpoint Dewpoint Depression Visibility Wind Speed Wind Dir Waves Ship Positions

Callsign LEFO3 (name unknown)

Last reported at 2018-Jul-13 15:00 UTC. Time now 2018-Jul-19 17:07 UTC.
Position N 67°42' E 014°13'.

Date/timePositionNaut miles runAvg speedWind from/ knotsBaromVisibWave heightAir tempDewpointWater temp
2018-Jul-13 15:00N 67°42' E 014°13'714.8
2018-Jul-13 14:30N 67°35' E 014°19'1414.2
2018-Jul-13 13:30N 67°21' E 014°23'4 7.1
2018-Jul-13 13:01N 67°17' E 014°24'0 0.0
2018-Jul-13 12:29N 67°17' E 014°24'0 0.0
2018-Jul-13 11:58N 67°17' E 014°24'0 0.0
2018-Jul-13 11:30N 67°17' E 014°24'0 0.0
2018-Jul-13 11:00N 67°17' E 014°24'0 0.1
2018-Jul-13 10:31N 67°17' E 014°24'612.6
2018-Jul-13 10:00N 67°13' E 014°11'714.9
2018-Jul-13 09:31N 67°07' E 014°00'815.2
2018-Jul-13 09:00N 67°01' E 013°47'714.6
2018-Jul-13 08:30N 66°58' E 013°31'5 9.7
2018-Jul-13 08:00N 66°54' E 013°38'2 4.4
2018-Jul-13 07:31N 66°52' E 013°42'712.9
2018-Jul-13 07:00N 66°49' E 013°28'4 8.3
2018-Jul-13 06:30N 66°47' E 013°18'815.3
2018-Jul-13 06:00N 66°40' E 013°08'714.7
2018-Jul-13 05:30N 66°33' E 013°03'613.2
2018-Jul-13 05:00N 66°27' E 012°60'815.0
2018-Jul-13 04:30N 66°19' E 012°57'612.6
2018-Jul-13 03:59N 66°13' E 012°58'2 3.7
2018-Jul-13 03:31N 66°11' E 012°60'815.1
2018-Jul-13 03:00N 66°06' E 012°45'611.5
2018-Jul-13 02:30N 66°01' E 012°38'0 0.6
2018-Jul-13 01:56N 66°02' E 012°38'614.2
2018-Jul-13 01:30N 65°58' E 012°27'714.3
2018-Jul-13 01:00N 65°51' E 012°22'714.8
2018-Jul-13 00:30N 65°44' E 012°18'815.0
2018-Jul-13 00:00N 65°36' E 012°14'815.0
2018-Jul-12 23:30N 65°29' E 012°13'0 0.8
2018-Jul-12 23:00N 65°29' E 012°13'4 8.1
2018-Jul-12 22:30N 65°25' E 012°09'4 8.5
2018-Jul-12 22:00N 65°21' E 012°03'814.7
2018-Jul-12 21:30N 65°14' E 011°55'714.9
2018-Jul-12 21:00N 65°08' E 011°49'714.6
2018-Jul-12 20:29N 65°01' E 011°41'714.5
2018-Jul-12 20:00N 64°57' E 011°28'714.8
2018-Jul-12 19:31N 64°52' E 011°16'1 1.0
2018-Jul-12 18:59N 64°52' E 011°14'4 7.5
2018-Jul-12 18:30N 64°49' E 011°09'714.5
2018-Jul-12 18:00N 64°44' E 010°57'714.8
2018-Jul-12 17:30N 64°39' E 010°44'714.5
2018-Jul-12 17:00N 64°33' E 010°34'714.1
2018-Jul-12 16:30N 64°26' E 010°27'713.1
2018-Jul-12 15:56N 64°19' E 010°25'613.5
2018-Jul-12 15:30N 64°14' E 010°16'714.5
2018-Jul-12 14:59N 64°08' E 010°06'611.6
2018-Jul-12 14:30N 64°03' E 010°03'712.9
2018-Jul-12 14:00N 63°58' E 009°53'713.8
2018-Jul-12 13:30N 63°53' E 009°43'714.2
2018-Jul-12 13:00N 63°47' E 009°34'714.3
2018-Jul-12 12:31N 63°40' E 009°29'510.2
2018-Jul-12 12:00N 63°39' E 009°40'712.6
2018-Jul-12 11:29N 63°34' E 009°51'714.6
2018-Jul-12 11:00N 63°29' E 010°00'815.0
2018-Jul-12 10:30N 63°28' E 010°17'4 7.1
2018-Jul-12 10:00N 63°27' E 010°24'0 0.0
2018-Jul-12 09:29N 63°27' E 010°24'0 0.0
2018-Jul-12 08:59N 63°27' E 010°24'0 0.0
2018-Jul-12 08:29N 63°27' E 010°24'0 0.0
2018-Jul-12 07:59N 63°27' E 010°24'0 0.0
2018-Jul-12 07:29N 63°27' E 010°24'0 0.0
2018-Jul-12 06:57N 63°27' E 010°24'1 1.1
2018-Jul-12 06:31N 63°27' E 010°23'815.7
2018-Jul-12 06:00N 63°28' E 010°06'714.6
2018-Jul-12 05:30N 63°32' E 009°52'815.6
2018-Jul-12 05:00N 63°39' E 009°44'815.4
2018-Jul-12 04:30N 63°36' E 009°29'715.2
2018-Jul-12 04:00N 63°32' E 009°14'714.8
2018-Jul-12 03:31N 63°29' E 008°60'714.7
2018-Jul-12 03:00N 63°26' E 008°44'715.0
2018-Jul-12 02:30N 63°23' E 008°29'815.0
2018-Jul-12 01:59N 63°18' E 008°15'714.7
2018-Jul-12 01:30N 63°15' E 008°02'715.1
2018-Jul-12 01:00N 63°11' E 007°48'5 9.1
2018-Jul-12 00:30N 63°06' E 007°44'1 1.0
2018-Jul-12 00:00N 63°07' E 007°44'2 4.9
2018-Jul-11 23:30N 63°07' E 007°39'714.1
2018-Jul-11 23:00N 63°04' E 007°25'714.2
2018-Jul-11 22:30N 63°02' E 007°10'714.3
2018-Jul-11 22:01N 62°59' E 006°56'611.1
2018-Jul-11 21:30N 62°54' E 006°53'713.4
2018-Jul-11 21:01N 62°47' E 006°58'510.1
2018-Jul-11 20:30N 62°44' E 007°05'2 3.7
2018-Jul-11 19:58N 62°44' E 007°09'3 5.9
2018-Jul-11 19:30N 62°43' E 007°04'713.0
2018-Jul-11 19:00N 62°41' E 006°51'713.7
2018-Jul-11 18:30N 62°39' E 006°37'713.3
2018-Jul-11 18:00N 62°37' E 006°22'713.1
2018-Jul-11 17:29N 62°33' E 006°11'510.2
2018-Jul-11 17:00N 62°29' E 006°09'0 0.0
2018-Jul-11 16:30N 62°29' E 006°09'4 8.2
2018-Jul-11 16:00N 62°26' E 006°03'714.2
2018-Jul-11 15:29N 62°24' E 006°18'815.5
2018-Jul-11 15:00N 62°26' E 006°34'715.0
2018-Jul-11 14:30N 62°27' E 006°50'714.1
2018-Jul-11 14:00N 62°20' E 006°57'715.0
2018-Jul-11 13:30N 62°13' E 007°02'713.7
2018-Jul-11 12:59N 62°06' E 006°59'611.5
2018-Jul-11 12:30N 62°06' E 007°11'0 0.1
2018-Jul-11 12:00N 62°06' E 007°12'2 3.6
2018-Jul-11 11:30N 62°07' E 007°08'5 9.3
2018-Jul-11 10:59N 62°08' E 006°58'714.2
2018-Jul-11 10:30N 62°15' E 007°01'714.6
2018-Jul-11 10:00N 62°22' E 006°56'713.1
2018-Jul-11 09:30N 62°27' E 006°47'714.3
2018-Jul-11 09:00N 62°25' E 006°32'713.9
2018-Jul-11 08:30N 62°24' E 006°17'713.3
2018-Jul-11 08:00N 62°25' E 006°03'4 8.4
2018-Jul-11 07:30N 62°29' E 006°09'0 0.0
2018-Jul-11 06:59N 62°29' E 006°09'3 5.7
2018-Jul-11 06:30N 62°28' E 006°03'714.6
2018-Jul-11 06:00N 62°24' E 005°49'5 9.7
2018-Jul-11 05:30N 62°20' E 005°44'3 6.5
2018-Jul-11 05:00N 62°19' E 005°37'714.2
2018-Jul-11 04:30N 62°17' E 005°23'714.6
2018-Jul-11 04:00N 62°13' E 005°09'713.2
2018-Jul-11 03:29N 62°07' E 005°05'815.0
2018-Jul-11 02:59N 61°59' E 005°10'3 6.9
2018-Jul-11 02:30N 61°56' E 005°07'510.0
2018-Jul-11 02:00N 61°52' E 005°14'510.6
2018-Jul-11 01:31N 61°48' E 005°07'814.8
2018-Jul-11 01:00N 61°42' E 004°58'6 7.7
2018-Jul-11 00:12N 61°36' E 005°02'2 8.3
2018-Jul-10 23:59N 61°36' E 004°58'713.8
2018-Jul-10 23:30N 61°29' E 004°59'714.8
2018-Jul-10 23:00N 61°23' E 004°50'714.8
2018-Jul-10 22:30N 61°16' E 004°46'714.4
2018-Jul-10 22:00N 61°10' E 004°38'714.8
2018-Jul-10 21:30N 61°03' E 004°37'714.4
2018-Jul-10 21:00N 60°56' E 004°40'714.4
2018-Jul-10 20:29N 60°49' E 004°44'714.6
2018-Jul-10 20:00N 60°42' E 004°50'715.0
2018-Jul-10 19:30N 60°35' E 004°55'815.2
2018-Jul-10 19:00N 60°28' E 005°00'714.1
2018-Jul-10 18:30N 60°23' E 005°11'4 7.5
2018-Jul-10 18:00N 60°24' E 005°19'0 0.0
2018-Jul-10 17:29N 60°24' E 005°19'0 0.0
2018-Jul-10 16:59N 60°24' E 005°19'0 0.0
2018-Jul-10 16:29N 60°24' E 005°19'177 7.1
2018-Jul-09 15:31N 63°07' E 007°41'1 2.8
2018-Jul-09 15:00N 63°07' E 007°44'0 0.0
2018-Jul-09 14:30N 63°07' E 007°44'2 4.3
2018-Jul-09 14:00N 63°09' E 007°43'714.6
2018-Jul-09 13:30N 63°13' E 007°56'714.7
2018-Jul-09 13:00N 63°17' E 008°11'714.7
2018-Jul-09 12:30N 63°22' E 008°23'714.9
2018-Jul-09 12:00N 63°25' E 008°38'714.8
2018-Jul-09 11:29N 63°28' E 008°53'715.1
2018-Jul-09 11:00N 63°31' E 009°09'715.1
2018-Jul-09 10:30N 63°34' E 009°23'815.2
2018-Jul-09 10:00N 63°38' E 009°38'611.3
2018-Jul-09 09:30N 63°36' E 009°49'714.9
2018-Jul-09 09:00N 63°29' E 009°57'815.0
2018-Jul-09 08:30N 63°28' E 010°14'5 9.5
2018-Jul-09 08:00N 63°27' E 010°24'0 0.0
2018-Jul-09 07:30N 63°27' E 010°24'0 0.0
2018-Jul-09 07:00N 63°27' E 010°24'0 0.0
2018-Jul-09 06:30N 63°27' E 010°24'0 0.0
2018-Jul-09 06:00N 63°27' E 010°24'0 0.0
2018-Jul-09 05:30N 63°27' E 010°24'0 0.0
2018-Jul-09 05:00N 63°27' E 010°24'0 0.0
2018-Jul-09 04:30N 63°27' E 010°24'3 5.7
2018-Jul-09 04:01N 63°28' E 010°18'714.2
2018-Jul-09 03:30N 63°29' E 010°02'713.9
2018-Jul-09 03:00N 63°33' E 009°51'713.2
2018-Jul-09 02:29N 63°39' E 009°43'612.7
2018-Jul-09 02:00N 63°39' E 009°29'815.3
2018-Jul-09 01:29N 63°46' E 009°20'714.9
2018-Jul-09 00:59N 63°53' E 009°23'715.4
2018-Jul-09 00:30N 63°60' E 009°30'714.9
2018-Jul-09 00:00N 64°07' E 009°37'714.4
2018-Jul-08 23:30N 64°13' E 009°44'714.2
2018-Jul-08 23:00N 64°19' E 009°54'714.5
2018-Jul-08 22:30N 64°24' E 010°06'713.9
2018-Jul-08 22:00N 64°29' E 010°18'713.9
2018-Jul-08 21:30N 64°33' E 010°29'714.0
2018-Jul-08 21:00N 64°38' E 010°40'713.8
2018-Jul-08 20:30N 64°43' E 010°53'714.0
2018-Jul-08 19:59N 64°48' E 011°06'511.4
2018-Jul-08 19:30N 64°52' E 011°14'0 0.0
2018-Jul-08 19:00N 64°52' E 011°14'165 9.1
2018-Jul-08 01:01N 67°17' E 014°24'0 0.9
2018-Jul-08 00:31N 67°17' E 014°23'510.9
2018-Jul-08 00:00N 67°23' E 014°25'713.9
2018-Jul-07 23:30N 67°30' E 014°22'713.6
2018-Jul-07 23:00N 67°36' E 014°18'714.4
2018-Jul-07 22:29N 67°43' E 014°12'713.9
2018-Jul-07 22:00N 67°49' E 014°06'714.0
2018-Jul-07 21:30N 67°56' E 013°59'714.3
2018-Jul-07 21:00N 68°03' E 013°53'4 8.8
2018-Jul-07 20:30N 68°07' E 013°50'1 1.9
2018-Jul-07 20:00N 68°06' E 013°51'713.9
2018-Jul-07 19:30N 68°07' E 014°10'713.9
2018-Jul-07 19:00N 68°11' E 014°25'4 8.3
2018-Jul-07 18:29N 68°14' E 014°34'0 0.0
2018-Jul-07 17:58N 68°14' E 014°34'0 0.0
2018-Jul-07 17:28N 68°14' E 014°34'0 0.0
2018-Jul-07 16:58N 68°14' E 014°34'1 2.5
2018-Jul-07 16:29N 68°13' E 014°37'612.8
2018-Jul-07 15:59N 68°14' E 014°54'714.9
2018-Jul-07 15:30N 68°21' E 014°59'1 2.0
2018-Jul-07 15:00N 68°22' E 014°60'3 5.8
2018-Jul-07 14:30N 68°24' E 015°06'612.4
2018-Jul-07 14:00N 68°29' E 015°12'714.3
2018-Jul-07 13:30N 68°34' E 014°59'2 3.1
2018-Jul-07 13:00N 68°34' E 014°55'0 0.0
2018-Jul-07 12:30N 68°34' E 014°55'2 4.7
2018-Jul-07 11:59N 68°34' E 015°01'714.3
2018-Jul-07 11:30N 68°37' E 015°18'510.1
2018-Jul-07 10:59N 68°42' E 015°25'0 0.0
2018-Jul-07 10:30N 68°42' E 015°25'4 7.5
2018-Jul-07 09:59N 68°46' E 015°26'714.0
2018-Jul-07 09:30N 68°52' E 015°31'612.7
2018-Jul-07 09:00N 68°58' E 015°39'0 0.1
2018-Jul-07 08:30N 68°58' E 015°38'5 9.9
2018-Jul-07 08:00N 68°59' E 015°52'714.9
2018-Jul-07 07:30N 68°57' E 016°12'714.8
2018-Jul-07 06:59N 68°52' E 016°28'5 9.2
2018-Jul-07 06:30N 68°48' E 016°33'0 0.0
2018-Jul-07 06:00N 68°48' E 016°33'4 8.3
2018-Jul-07 05:30N 68°50' E 016°42'714.6
2018-Jul-07 04:59N 68°55' E 016°58'715.1
2018-Jul-07 04:30N 68°60' E 017°14'714.9
2018-Jul-07 04:00N 69°06' E 017°26'815.2
2018-Jul-07 03:30N 69°08' E 017°46'612.8
2018-Jul-07 03:00N 69°12' E 017°60'1 2.8
2018-Jul-07 02:30N 69°14' E 017°58'4 8.4
2018-Jul-07 02:00N 69°18' E 017°58'612.0
2018-Jul-07 01:30N 69°23' E 018°05'712.7
2018-Jul-07 00:58N 69°29' E 018°13'715.2
2018-Jul-07 00:30N 69°32' E 018°32'714.3
2018-Jul-07 00:00N 69°35' E 018°51'4 8.6
2018-Jul-06 23:30N 69°39' E 018°58'0 0.0
2018-Jul-06 23:00N 69°39' E 018°58'0 0.0
2018-Jul-06 22:29N 69°39' E 018°58'0 0.0
2018-Jul-06 22:00N 69°39' E 018°58'2 3.5
2018-Jul-06 21:28N 69°40' E 019°01'613.6
2018-Jul-06 21:00N 69°46' E 019°09'714.4
2018-Jul-06 20:30N 69°49' E 019°28'714.5
2018-Jul-06 20:00N 69°52' E 019°47'814.8
2018-Jul-06 19:29N 69°56' E 020°05'714.3
2018-Jul-06 19:00N 69°60' E 020°23'814.7
2018-Jul-06 18:29N 70°02' E 020°44'612.9
2018-Jul-06 18:00N 70°03' E 021°02'1 2.1
2018-Jul-06 17:22N 70°02' E 020°59'411.6
2018-Jul-06 17:00N 70°06' E 021°04'815.2
2018-Jul-06 16:30N 70°13' E 021°08'815.5
2018-Jul-06 16:01N 70°18' E 021°26'714.7
2018-Jul-06 15:30N 70°24' E 021°41'714.1
2018-Jul-06 15:00N 70°21' E 021°60'714.7
2018-Jul-06 14:30N 70°17' E 022°18'3 5.9
2018-Jul-06 14:00N 70°14' E 022°21'2 4.7
2018-Jul-06 13:30N 70°16' E 022°19'613.0
2018-Jul-06 13:00N 70°23' E 022°22'714.0
2018-Jul-06 12:30N 70°27' E 022°40'714.4
2018-Jul-06 12:00N 70°31' E 022°57'714.1
2018-Jul-06 11:30N 70°36' E 023°13'714.6
2018-Jul-06 11:01N 70°39' E 023°32'3 5.7
2018-Jul-06 10:30N 70°40' E 023°41'0 0.0
2018-Jul-06 09:58N 70°40' E 023°41'0 0.0
2018-Jul-06 09:28N 70°40' E 023°41'0 0.0
2018-Jul-06 08:59N 70°40' E 023°41'3 6.0
2018-Jul-06 08:30N 70°41' E 023°33'713.8
2018-Jul-06 08:01N 70°47' E 023°44'714.5
2018-Jul-06 07:30N 70°52' E 024°00'713.7
2018-Jul-06 06:59N 70°57' E 024°16'713.7
2018-Jul-06 06:30N 71°01' E 024°32'4 7.1
2018-Jul-06 06:00N 70°60' E 024°41'510.2
2018-Jul-06 05:30N 70°60' E 024°57'815.4
2018-Jul-06 05:00N 70°59' E 025°21'712.9
2018-Jul-06 04:30N 70°56' E 025°38'713.6
2018-Jul-06 04:00N 70°59' E 025°57'1 1.0
2018-Jul-06 03:30N 70°59' E 025°58'4 7.5
2018-Jul-06 02:59N 70°58' E 026°10'713.6
2018-Jul-06 02:30N 70°59' E 026°30'713.6
2018-Jul-06 01:59N 70°59' E 026°51'713.9
2018-Jul-06 01:30N 70°59' E 027°12'3 6.6
2018-Jul-06 00:59N 70°57' E 027°20'510.0
2018-Jul-06 00:30N 71°01' E 027°10'713.7
2018-Jul-06 00:00N 71°06' E 027°25'713.7
2018-Jul-05 23:30N 71°08' E 027°45'4 5.0
2018-Jul-05 22:38N 71°04' E 027°52'213.5
2018-Jul-05 22:30N 71°05' E 027°56'713.5
2018-Jul-05 22:00N 71°07' E 028°16'714.0
2018-Jul-05 21:30N 71°03' E 028°33'714.1
2018-Jul-05 21:00N 70°58' E 028°50'713.9
2018-Jul-05 20:30N 70°54' E 029°07'3 5.4
2018-Jul-05 20:00N 70°51' E 029°07'510.4
2018-Jul-05 19:30N 70°50' E 029°23'714.8
2018-Jul-05 19:00N 70°46' E 029°41'713.1
2018-Jul-05 18:29N 70°40' E 029°49'3 5.5
2018-Jul-05 18:00N 70°38' E 029°44'2 4.0
2018-Jul-05 17:30N 70°39' E 029°48'713.6
2018-Jul-05 17:00N 70°43' E 030°04'713.3
2018-Jul-05 16:30N 70°40' E 030°21'714.3
2018-Jul-05 16:00N 70°35' E 030°36'714.1
2018-Jul-05 15:30N 70°30' E 030°51'813.8
2018-Jul-05 14:53N 70°23' E 031°06'1 0.7
2018-Jul-05 13:59N 70°22' E 031°06'3 6.6
2018-Jul-05 13:30N 70°19' E 031°07'714.8
2018-Jul-05 13:00N 70°13' E 030°56'714.8
2018-Jul-05 12:30N 70°07' E 030°42'714.6
2018-Jul-05 12:00N 70°02' E 030°29'714.4
2018-Jul-05 11:30N 69°56' E 030°15'814.7
2018-Jul-05 11:00N 69°49' E 030°07'511.2
2018-Jul-05 10:30N 69°44' E 030°04'0 0.0
2018-Jul-05 10:00N 69°44' E 030°04'0 0.0
2018-Jul-05 09:30N 69°44' E 030°04'0 0.0
2018-Jul-05 09:00N 69°44' E 030°04'0 0.0
2018-Jul-05 08:30N 69°44' E 030°04'0 0.0
2018-Jul-05 08:00N 69°44' E 030°04'0 0.0
2018-Jul-05 07:30N 69°44' E 030°04'0 0.6
2018-Jul-05 07:00N 69°44' E 030°05'713.5
2018-Jul-05 06:30N 69°51' E 030°04'714.2
2018-Jul-05 06:00N 69°57' E 029°54'713.7
2018-Jul-05 05:30N 70°03' E 029°44'1 2.8
2018-Jul-05 05:00N 70°04' E 029°44'1 1.6
2018-Jul-05 04:30N 70°04' E 029°42'612.5
2018-Jul-05 04:00N 70°03' E 029°60'713.7
2018-Jul-05 03:30N 70°05' E 030°19'714.5
2018-Jul-05 03:00N 70°09' E 030°37'714.3
2018-Jul-05 02:31N 70°13' E 030°53'713.7
2018-Jul-05 02:00N 70°18' E 031°06'4 8.5
2018-Jul-05 01:30N 70°23' E 031°06'3 5.8
2018-Jul-05 01:01N 70°25' E 031°04'815.0
2018-Jul-05 00:29N 70°31' E 030°48'714.8
2018-Jul-05 00:00N 70°36' E 030°32'815.2
2018-Jul-04 23:30N 70°41' E 030°16'612.8
2018-Jul-04 23:00N 70°43' E 029°58'713.9
2018-Jul-04 22:30N 70°38' E 029°44'2 3.6
2018-Jul-04 22:00N 70°39' E 029°48'713.6
2018-Jul-04 21:30N 70°46' E 029°41'715.1
2018-Jul-04 21:00N 70°50' E 029°23'510.4
2018-Jul-04 20:29N 70°51' E 029°07'2 3.6
2018-Jul-04 20:00N 70°53' E 029°09'612.1
2018-Jul-04 19:30N 70°57' E 028°54'714.1
2018-Jul-04 19:00N 71°01' E 028°38'714.3
2018-Jul-04 18:30N 71°06' E 028°20'713.6
2018-Jul-04 18:00N 71°06' E 027°59'4 3.4
2018-Jul-04 16:58N 71°05' E 027°49'511.1
2018-Jul-04 16:30N 71°08' E 027°34'715.2
2018-Jul-04 16:00N 71°03' E 027°16'612.3
2018-Jul-04 15:30N 70°57' E 027°18'0 0.6
2018-Jul-04 14:59N 70°58' E 027°18'714.4
2018-Jul-04 14:30N 70°59' E 026°57'815.2
2018-Jul-04 13:59N 70°59' E 026°33'815.5
2018-Jul-04 13:30N 70°58' E 026°10'4 7.7
2018-Jul-04 13:00N 70°59' E 025°58'0 0.0
2018-Jul-04 12:28N 70°59' E 025°58'0 0.0
2018-Jul-04 11:58N 70°59' E 025°58'0 0.0
2018-Jul-04 11:28N 70°59' E 025°58'9 3.0
2018-Jul-04 08:26N 70°56' E 025°31'613.8
2018-Jul-04 07:59N 70°59' E 025°15'714.8
2018-Jul-04 07:29N 70°60' E 024°52'4 7.2
2018-Jul-04 07:00N 70°60' E 024°41'1 2.6
2018-Jul-04 06:30N 71°01' E 024°40'612.2
2018-Jul-04 06:00N 70°59' E 024°23'714.1
2018-Jul-04 05:30N 70°54' E 024°07'713.9
2018-Jul-04 05:00N 70°49' E 023°52'713.1
2018-Jul-04 04:29N 70°44' E 023°38'4 9.2
2018-Jul-04 04:00N 70°40' E 023°41'0 0.1
2018-Jul-04 03:30N 70°40' E 023°41'2 4.4
2018-Jul-04 02:59N 70°39' E 023°34'713.9
2018-Jul-04 02:30N 70°36' E 023°16'714.2
2018-Jul-04 02:00N 70°32' E 022°60'714.4
2018-Jul-04 01:30N 70°27' E 022°42'714.3
2018-Jul-04 01:00N 70°23' E 022°25'713.5
2018-Jul-04 00:30N 70°17' E 022°19'3 5.2
2018-Jul-04 00:00N 70°14' E 022°21'5 9.4
2018-Jul-03 23:30N 70°18' E 022°13'815.4
2018-Jul-03 23:00N 70°22' E 021°54'612.4
2018-Jul-03 22:30N 70°22' E 021°35'715.0
2018-Jul-03 22:00N 70°17' E 021°20'713.8
2018-Jul-03 21:30N 70°11' E 021°07'8 5.4
2018-Jul-03 20:04N 70°04' E 021°01'113.0
2018-Jul-03 20:00N 70°04' E 020°58'714.1
2018-Jul-03 19:30N 70°01' E 020°39'714.8
2018-Jul-03 19:00N 69°59' E 020°18'714.7
2018-Jul-03 18:30N 69°55' E 020°00'714.5
2018-Jul-03 18:00N 69°51' E 019°43'714.9
2018-Jul-03 17:30N 69°48' E 019°23'714.9
2018-Jul-03 17:00N 69°45' E 019°04'612.3
2018-Jul-03 16:29N 69°39' E 018°58'0 0.0
2018-Jul-03 15:58N 69°39' E 018°58'0 0.0
2018-Jul-03 15:28N 69°39' E 018°58'  
Track history (hours):
 
Tides and Currents Weather Stations Pressure Air Temp Water Temp Dewpoint Dewpoint Depression Visibility Wind Speed Wind Dir Waves Ship Positions

Callsign LEFO3 (name unknown)

Last reported at 2018-Jul-13 15:00 UTC. Time now 2018-Jul-19 17:07 UTC.
Position N 67°42' E 014°13'.

Date/timePositionNaut miles runAvg speedWind from/ knotsBaromVisibWave heightAir tempDewpointWater temp
2018-Jul-13 15:00N 67°42' E 014°13'714.8
2018-Jul-13 14:30N 67°35' E 014°19'1414.2
2018-Jul-13 13:30N 67°21' E 014°23'4 7.1
2018-Jul-13 13:01N 67°17' E 014°24'0 0.0
2018-Jul-13 12:29N 67°17' E 014°24'0 0.0
2018-Jul-13 11:58N 67°17' E 014°24'0 0.0
2018-Jul-13 11:30N 67°17' E 014°24'0 0.0
2018-Jul-13 11:00N 67°17' E 014°24'0 0.1
2018-Jul-13 10:31N 67°17' E 014°24'612.6
2018-Jul-13 10:00N 67°13' E 014°11'714.9
2018-Jul-13 09:31N 67°07' E 014°00'815.2
2018-Jul-13 09:00N 67°01' E 013°47'714.6
2018-Jul-13 08:30N 66°58' E 013°31'5 9.7
2018-Jul-13 08:00N 66°54' E 013°38'2 4.4
2018-Jul-13 07:31N 66°52' E 013°42'712.9
2018-Jul-13 07:00N 66°49' E 013°28'4 8.3
2018-Jul-13 06:30N 66°47' E 013°18'815.3
2018-Jul-13 06:00N 66°40' E 013°08'714.7
2018-Jul-13 05:30N 66°33' E 013°03'613.2
2018-Jul-13 05:00N 66°27' E 012°60'815.0
2018-Jul-13 04:30N 66°19' E 012°57'612.6
2018-Jul-13 03:59N 66°13' E 012°58'2 3.7
2018-Jul-13 03:31N 66°11' E 012°60'815.1
2018-Jul-13 03:00N 66°06' E 012°45'611.5
2018-Jul-13 02:30N 66°01' E 012°38'0 0.6
2018-Jul-13 01:56N 66°02' E 012°38'614.2
2018-Jul-13 01:30N 65°58' E 012°27'714.3
2018-Jul-13 01:00N 65°51' E 012°22'714.8
2018-Jul-13 00:30N 65°44' E 012°18'815.0
2018-Jul-13 00:00N 65°36' E 012°14'815.0
2018-Jul-12 23:30N 65°29' E 012°13'0 0.8
2018-Jul-12 23:00N 65°29' E 012°13'4 8.1
2018-Jul-12 22:30N 65°25' E 012°09'4 8.5
2018-Jul-12 22:00N 65°21' E 012°03'814.7
2018-Jul-12 21:30N 65°14' E 011°55'714.9
2018-Jul-12 21:00N 65°08' E 011°49'714.6
2018-Jul-12 20:29N 65°01' E 011°41'714.5
2018-Jul-12 20:00N 64°57' E 011°28'714.8
2018-Jul-12 19:31N 64°52' E 011°16'1 1.0
2018-Jul-12 18:59N 64°52' E 011°14'4 7.5
2018-Jul-12 18:30N 64°49' E 011°09'714.5
2018-Jul-12 18:00N 64°44' E 010°57'714.8
2018-Jul-12 17:30N 64°39' E 010°44'714.5
2018-Jul-12 17:00N 64°33' E 010°34'714.1
2018-Jul-12 16:30N 64°26' E 010°27'713.1
2018-Jul-12 15:56N 64°19' E 010°25'613.5
2018-Jul-12 15:30N 64°14' E 010°16'714.5
2018-Jul-12 14:59N 64°08' E 010°06'611.6
2018-Jul-12 14:30N 64°03' E 010°03'712.9
2018-Jul-12 14:00N 63°58' E 009°53'713.8
2018-Jul-12 13:30N 63°53' E 009°43'714.2
2018-Jul-12 13:00N 63°47' E 009°34'714.3
2018-Jul-12 12:31N 63°40' E 009°29'510.2
2018-Jul-12 12:00N 63°39' E 009°40'712.6
2018-Jul-12 11:29N 63°34' E 009°51'714.6
2018-Jul-12 11:00N 63°29' E 010°00'815.0
2018-Jul-12 10:30N 63°28' E 010°17'4 7.1
2018-Jul-12 10:00N 63°27' E 010°24'0 0.0
2018-Jul-12 09:29N 63°27' E 010°24'0 0.0
2018-Jul-12 08:59N 63°27' E 010°24'0 0.0
2018-Jul-12 08:29N 63°27' E 010°24'0 0.0
2018-Jul-12 07:59N 63°27' E 010°24'0 0.0
2018-Jul-12 07:29N 63°27' E 010°24'0 0.0
2018-Jul-12 06:57N 63°27' E 010°24'1 1.1
2018-Jul-12 06:31N 63°27' E 010°23'815.7
2018-Jul-12 06:00N 63°28' E 010°06'714.6
2018-Jul-12 05:30N 63°32' E 009°52'815.6
2018-Jul-12 05:00N 63°39' E 009°44'815.4
2018-Jul-12 04:30N 63°36' E 009°29'715.2
2018-Jul-12 04:00N 63°32' E 009°14'714.8
2018-Jul-12 03:31N 63°29' E 008°60'714.7
2018-Jul-12 03:00N 63°26' E 008°44'715.0
2018-Jul-12 02:30N 63°23' E 008°29'815.0
2018-Jul-12 01:59N 63°18' E 008°15'714.7
2018-Jul-12 01:30N 63°15' E 008°02'715.1
2018-Jul-12 01:00N 63°11' E 007°48'5 9.1
2018-Jul-12 00:30N 63°06' E 007°44'1 1.0
2018-Jul-12 00:00N 63°07' E 007°44'2 4.9
2018-Jul-11 23:30N 63°07' E 007°39'714.1
2018-Jul-11 23:00N 63°04' E 007°25'714.2
2018-Jul-11 22:30N 63°02' E 007°10'714.3
2018-Jul-11 22:01N 62°59' E 006°56'611.1
2018-Jul-11 21:30N 62°54' E 006°53'713.4
2018-Jul-11 21:01N 62°47' E 006°58'510.1
2018-Jul-11 20:30N 62°44' E 007°05'2 3.7
2018-Jul-11 19:58N 62°44' E 007°09'3 5.9
2018-Jul-11 19:30N 62°43' E 007°04'713.0
2018-Jul-11 19:00N 62°41' E 006°51'713.7
2018-Jul-11 18:30N 62°39' E 006°37'713.3
2018-Jul-11 18:00N 62°37' E 006°22'713.1
2018-Jul-11 17:29N 62°33' E 006°11'510.2
2018-Jul-11 17:00N 62°29' E 006°09'0 0.0
2018-Jul-11 16:30N 62°29' E 006°09'4 8.2
2018-Jul-11 16:00N 62°26' E 006°03'714.2
2018-Jul-11 15:29N 62°24' E 006°18'815.5
2018-Jul-11 15:00N 62°26' E 006°34'715.0
2018-Jul-11 14:30N 62°27' E 006°50'714.1
2018-Jul-11 14:00N 62°20' E 006°57'715.0
2018-Jul-11 13:30N 62°13' E 007°02'713.7
2018-Jul-11 12:59N 62°06' E 006°59'611.5
2018-Jul-11 12:30N 62°06' E 007°11'0 0.1
2018-Jul-11 12:00N 62°06' E 007°12'2 3.6
2018-Jul-11 11:30N 62°07' E 007°08'5 9.3
2018-Jul-11 10:59N 62°08' E 006°58'714.2
2018-Jul-11 10:30N 62°15' E 007°01'714.6
2018-Jul-11 10:00N 62°22' E 006°56'713.1
2018-Jul-11 09:30N 62°27' E 006°47'714.3
2018-Jul-11 09:00N 62°25' E 006°32'713.9
2018-Jul-11 08:30N 62°24' E 006°17'713.3
2018-Jul-11 08:00N 62°25' E 006°03'4 8.4
2018-Jul-11 07:30N 62°29' E 006°09'0 0.0
2018-Jul-11 06:59N 62°29' E 006°09'3 5.7
2018-Jul-11 06:30N 62°28' E 006°03'714.6
2018-Jul-11 06:00N 62°24' E 005°49'5 9.7
2018-Jul-11 05:30N 62°20' E 005°44'3 6.5
2018-Jul-11 05:00N 62°19' E 005°37'714.2
2018-Jul-11 04:30N 62°17' E 005°23'714.6
2018-Jul-11 04:00N 62°13' E 005°09'713.2
2018-Jul-11 03:29N 62°07' E 005°05'815.0
2018-Jul-11 02:59N 61°59' E 005°10'3 6.9
2018-Jul-11 02:30N 61°56' E 005°07'510.0
2018-Jul-11 02:00N 61°52' E 005°14'510.6
2018-Jul-11 01:31N 61°48' E 005°07'814.8
2018-Jul-11 01:00N 61°42' E 004°58'6 7.7
2018-Jul-11 00:12N 61°36' E 005°02'2 8.3
2018-Jul-10 23:59N 61°36' E 004°58'713.8
2018-Jul-10 23:30N 61°29' E 004°59'714.8
2018-Jul-10 23:00N 61°23' E 004°50'714.8
2018-Jul-10 22:30N 61°16' E 004°46'714.4
2018-Jul-10 22:00N 61°10' E 004°38'714.8
2018-Jul-10 21:30N 61°03' E 004°37'714.4
2018-Jul-10 21:00N 60°56' E 004°40'714.4
2018-Jul-10 20:29N 60°49' E 004°44'714.6
2018-Jul-10 20:00N 60°42' E 004°50'715.0
2018-Jul-10 19:30N 60°35' E 004°55'815.2
2018-Jul-10 19:00N 60°28' E 005°00'714.1
2018-Jul-10 18:30N 60°23' E 005°11'4 7.5
2018-Jul-10 18:00N 60°24' E 005°19'0 0.0
2018-Jul-10 17:29N 60°24' E 005°19'0 0.0
2018-Jul-10 16:59N 60°24' E 005°19'0 0.0
2018-Jul-10 16:29N 60°24' E 005°19'177 7.1
2018-Jul-09 15:31N 63°07' E 007°41'1 2.8
2018-Jul-09 15:00N 63°07' E 007°44'0 0.0
2018-Jul-09 14:30N 63°07' E 007°44'2 4.3
2018-Jul-09 14:00N 63°09' E 007°43'714.6
2018-Jul-09 13:30N 63°13' E 007°56'714.7
2018-Jul-09 13:00N 63°17' E 008°11'714.7
2018-Jul-09 12:30N 63°22' E 008°23'714.9
2018-Jul-09 12:00N 63°25' E 008°38'714.8
2018-Jul-09 11:29N 63°28' E 008°53'715.1
2018-Jul-09 11:00N 63°31' E 009°09'715.1
2018-Jul-09 10:30N 63°34' E 009°23'815.2
2018-Jul-09 10:00N 63°38' E 009°38'611.3
2018-Jul-09 09:30N 63°36' E 009°49'714.9
2018-Jul-09 09:00N 63°29' E 009°57'815.0
2018-Jul-09 08:30N 63°28' E 010°14'5 9.5
2018-Jul-09 08:00N 63°27' E 010°24'0 0.0
2018-Jul-09 07:30N 63°27' E 010°24'0 0.0
2018-Jul-09 07:00N 63°27' E 010°24'0 0.0
2018-Jul-09 06:30N 63°27' E 010°24'0 0.0
2018-Jul-09 06:00N 63°27' E 010°24'0 0.0
2018-Jul-09 05:30N 63°27' E 010°24'0 0.0
2018-Jul-09 05:00N 63°27' E 010°24'0 0.0
2018-Jul-09 04:30N 63°27' E 010°24'3 5.7
2018-Jul-09 04:01N 63°28' E 010°18'714.2
2018-Jul-09 03:30N 63°29' E 010°02'713.9
2018-Jul-09 03:00N 63°33' E 009°51'713.2
2018-Jul-09 02:29N 63°39' E 009°43'612.7
2018-Jul-09 02:00N 63°39' E 009°29'815.3
2018-Jul-09 01:29N 63°46' E 009°20'714.9
2018-Jul-09 00:59N 63°53' E 009°23'715.4
2018-Jul-09 00:30N 63°60' E 009°30'714.9
2018-Jul-09 00:00N 64°07' E 009°37'714.4
2018-Jul-08 23:30N 64°13' E 009°44'714.2
2018-Jul-08 23:00N 64°19' E 009°54'714.5
2018-Jul-08 22:30N 64°24' E 010°06'713.9
2018-Jul-08 22:00N 64°29' E 010°18'713.9
2018-Jul-08 21:30N 64°33' E 010°29'714.0
2018-Jul-08 21:00N 64°38' E 010°40'713.8
2018-Jul-08 20:30N 64°43' E 010°53'714.0
2018-Jul-08 19:59N 64°48' E 011°06'511.4
2018-Jul-08 19:30N 64°52' E 011°14'0 0.0
2018-Jul-08 19:00N 64°52' E 011°14'165 9.1
2018-Jul-08 01:01N 67°17' E 014°24'0 0.9
2018-Jul-08 00:31N 67°17' E 014°23'510.9
2018-Jul-08 00:00N 67°23' E 014°25'713.9
2018-Jul-07 23:30N 67°30' E 014°22'713.6
2018-Jul-07 23:00N 67°36' E 014°18'714.4
2018-Jul-07 22:29N 67°43' E 014°12'713.9
2018-Jul-07 22:00N 67°49' E 014°06'714.0
2018-Jul-07 21:30N 67°56' E 013°59'714.3
2018-Jul-07 21:00N 68°03' E 013°53'4 8.8
2018-Jul-07 20:30N 68°07' E 013°50'1 1.9
2018-Jul-07 20:00N 68°06' E 013°51'713.9
2018-Jul-07 19:30N 68°07' E 014°10'713.9
2018-Jul-07 19:00N 68°11' E 014°25'4 8.3
2018-Jul-07 18:29N 68°14' E 014°34'0 0.0
2018-Jul-07 17:58N 68°14' E 014°34'0 0.0
2018-Jul-07 17:28N 68°14' E 014°34'0 0.0
2018-Jul-07 16:58N 68°14' E 014°34'1 2.5
2018-Jul-07 16:29N 68°13' E 014°37'612.8
2018-Jul-07 15:59N 68°14' E 014°54'714.9
2018-Jul-07 15:30N 68°21' E 014°59'1 2.0
2018-Jul-07 15:00N 68°22' E 014°60'3 5.8
2018-Jul-07 14:30N 68°24' E 015°06'612.4
2018-Jul-07 14:00N 68°29' E 015°12'714.3
2018-Jul-07 13:30N 68°34' E 014°59'2 3.1
2018-Jul-07 13:00N 68°34' E 014°55'0 0.0
2018-Jul-07 12:30N 68°34' E 014°55'2 4.7
2018-Jul-07 11:59N 68°34' E 015°01'714.3
2018-Jul-07 11:30N 68°37' E 015°18'510.1
2018-Jul-07 10:59N 68°42' E 015°25'0 0.0
2018-Jul-07 10:30N 68°42' E 015°25'4 7.5
2018-Jul-07 09:59N 68°46' E 015°26'714.0
2018-Jul-07 09:30N 68°52' E 015°31'612.7
2018-Jul-07 09:00N 68°58' E 015°39'0 0.1
2018-Jul-07 08:30N 68°58' E 015°38'5 9.9
2018-Jul-07 08:00N 68°59' E 015°52'714.9
2018-Jul-07 07:30N 68°57' E 016°12'714.8
2018-Jul-07 06:59N 68°52' E 016°28'5 9.2
2018-Jul-07 06:30N 68°48' E 016°33'0 0.0
2018-Jul-07 06:00N 68°48' E 016°33'4 8.3
2018-Jul-07 05:30N 68°50' E 016°42'714.6
2018-Jul-07 04:59N 68°55' E 016°58'715.1
2018-Jul-07 04:30N 68°60' E 017°14'714.9
2018-Jul-07 04:00N 69°06' E 017°26'815.2
2018-Jul-07 03:30N 69°08' E 017°46'612.8
2018-Jul-07 03:00N 69°12' E 017°60'1 2.8
2018-Jul-07 02:30N 69°14' E 017°58'4 8.4
2018-Jul-07 02:00N 69°18' E 017°58'612.0
2018-Jul-07 01:30N 69°23' E 018°05'712.7
2018-Jul-07 00:58N 69°29' E 018°13'715.2
2018-Jul-07 00:30N 69°32' E 018°32'714.3
2018-Jul-07 00:00N 69°35' E 018°51'4 8.6
2018-Jul-06 23:30N 69°39' E 018°58'0 0.0
2018-Jul-06 23:00N 69°39' E 018°58'0 0.0
2018-Jul-06 22:29N 69°39' E 018°58'0 0.0
2018-Jul-06 22:00N 69°39' E 018°58'2 3.5
2018-Jul-06 21:28N 69°40' E 019°01'613.6
2018-Jul-06 21:00N 69°46' E 019°09'714.4
2018-Jul-06 20:30N 69°49' E 019°28'714.5
2018-Jul-06 20:00N 69°52' E 019°47'814.8
2018-Jul-06 19:29N 69°56' E 020°05'714.3
2018-Jul-06 19:00N 69°60' E 020°23'814.7
2018-Jul-06 18:29N 70°02' E 020°44'612.9
2018-Jul-06 18:00N 70°03' E 021°02'1 2.1
2018-Jul-06 17:22N 70°02' E 020°59'411.6
2018-Jul-06 17:00N 70°06' E 021°04'815.2
2018-Jul-06 16:30N 70°13' E 021°08'815.5
2018-Jul-06 16:01N 70°18' E 021°26'714.7
2018-Jul-06 15:30N 70°24' E 021°41'714.1
2018-Jul-06 15:00N 70°21' E 021°60'714.7
2018-Jul-06 14:30N 70°17' E 022°18'3 5.9
2018-Jul-06 14:00N 70°14' E 022°21'2 4.7
2018-Jul-06 13:30N 70°16' E 022°19'613.0
2018-Jul-06 13:00N 70°23' E 022°22'714.0
2018-Jul-06 12:30N 70°27' E 022°40'714.4
2018-Jul-06 12:00N 70°31' E 022°57'714.1
2018-Jul-06 11:30N 70°36' E 023°13'714.6
2018-Jul-06 11:01N 70°39' E 023°32'3 5.7
2018-Jul-06 10:30N 70°40' E 023°41'0 0.0
2018-Jul-06 09:58N 70°40' E 023°41'0 0.0
2018-Jul-06 09:28N 70°40' E 023°41'0 0.0
2018-Jul-06 08:59N 70°40' E 023°41'3 6.0
2018-Jul-06 08:30N 70°41' E 023°33'713.8
2018-Jul-06 08:01N 70°47' E 023°44'714.5
2018-Jul-06 07:30N 70°52' E 024°00'713.7
2018-Jul-06 06:59N 70°57' E 024°16'713.7
2018-Jul-06 06:30N 71°01' E 024°32'4 7.1
2018-Jul-06 06:00N 70°60' E 024°41'510.2
2018-Jul-06 05:30N 70°60' E 024°57'815.4
2018-Jul-06 05:00N 70°59' E 025°21'712.9
2018-Jul-06 04:30N 70°56' E 025°38'713.6
2018-Jul-06 04:00N 70°59' E 025°57'1 1.0
2018-Jul-06 03:30N 70°59' E 025°58'4 7.5
2018-Jul-06 02:59N 70°58' E 026°10'713.6
2018-Jul-06 02:30N 70°59' E 026°30'713.6
2018-Jul-06 01:59N 70°59' E 026°51'713.9
2018-Jul-06 01:30N 70°59' E 027°12'3 6.6
2018-Jul-06 00:59N 70°57' E 027°20'510.0
2018-Jul-06 00:30N 71°01' E 027°10'713.7
2018-Jul-06 00:00N 71°06' E 027°25'713.7
2018-Jul-05 23:30N 71°08' E 027°45'4 5.0
2018-Jul-05 22:38N 71°04' E 027°52'213.5
2018-Jul-05 22:30N 71°05' E 027°56'713.5
2018-Jul-05 22:00N 71°07' E 028°16'714.0
2018-Jul-05 21:30N 71°03' E 028°33'714.1
2018-Jul-05 21:00N 70°58' E 028°50'713.9
2018-Jul-05 20:30N 70°54' E 029°07'3 5.4
2018-Jul-05 20:00N 70°51' E 029°07'510.4
2018-Jul-05 19:30N 70°50' E 029°23'714.8
2018-Jul-05 19:00N 70°46' E 029°41'713.1
2018-Jul-05 18:29N 70°40' E 029°49'3 5.5
2018-Jul-05 18:00N 70°38' E 029°44'2 4.0
2018-Jul-05 17:30N 70°39' E 029°48'713.6
2018-Jul-05 17:00N 70°43' E 030°04'713.3
2018-Jul-05 16:30N 70°40' E 030°21'714.3
2018-Jul-05 16:00N 70°35' E 030°36'714.1
2018-Jul-05 15:30N 70°30' E 030°51'813.8
2018-Jul-05 14:53N 70°23' E 031°06'1 0.7
2018-Jul-05 13:59N 70°22' E 031°06'3 6.6
2018-Jul-05 13:30N 70°19' E 031°07'714.8
2018-Jul-05 13:00N 70°13' E 030°56'714.8
2018-Jul-05 12:30N 70°07' E 030°42'714.6
2018-Jul-05 12:00N 70°02' E 030°29'714.4
2018-Jul-05 11:30N 69°56' E 030°15'814.7
2018-Jul-05 11:00N 69°49' E 030°07'511.2
2018-Jul-05 10:30N 69°44' E 030°04'0 0.0
2018-Jul-05 10:00N 69°44' E 030°04'0 0.0
2018-Jul-05 09:30N 69°44' E 030°04'0 0.0
2018-Jul-05 09:00N 69°44' E 030°04'0 0.0
2018-Jul-05 08:30N 69°44' E 030°04'0 0.0
2018-Jul-05 08:00N 69°44' E 030°04'0 0.0
2018-Jul-05 07:30N 69°44' E 030°04'0 0.6
2018-Jul-05 07:00N 69°44' E 030°05'713.5
2018-Jul-05 06:30N 69°51' E 030°04'714.2
2018-Jul-05 06:00N 69°57' E 029°54'713.7
2018-Jul-05 05:30N 70°03' E 029°44'1 2.8
2018-Jul-05 05:00N 70°04' E 029°44'1 1.6
2018-Jul-05 04:30N 70°04' E 029°42'612.5
2018-Jul-05 04:00N 70°03' E 029°60'713.7
2018-Jul-05 03:30N 70°05' E 030°19'714.5
2018-Jul-05 03:00N 70°09' E 030°37'714.3
2018-Jul-05 02:31N 70°13' E 030°53'713.7
2018-Jul-05 02:00N 70°18' E 031°06'4 8.5
2018-Jul-05 01:30N 70°23' E 031°06'3 5.8
2018-Jul-05 01:01N 70°25' E 031°04'815.0
2018-Jul-05 00:29N 70°31' E 030°48'714.8
2018-Jul-05 00:00N 70°36' E 030°32'815.2
2018-Jul-04 23:30N 70°41' E 030°16'612.8
2018-Jul-04 23:00N 70°43' E 029°58'713.9
2018-Jul-04 22:30N 70°38' E 029°44'2 3.6
2018-Jul-04 22:00N 70°39' E 029°48'713.6
2018-Jul-04 21:30N 70°46' E 029°41'715.1
2018-Jul-04 21:00N 70°50' E 029°23'510.4
2018-Jul-04 20:29N 70°51' E 029°07'2 3.6
2018-Jul-04 20:00N 70°53' E 029°09'612.1
2018-Jul-04 19:30N 70°57' E 028°54'714.1
2018-Jul-04 19:00N 71°01' E 028°38'714.3
2018-Jul-04 18:30N 71°06' E 028°20'713.6
2018-Jul-04 18:00N 71°06' E 027°59'4 3.4
2018-Jul-04 16:58N 71°05' E 027°49'511.1
2018-Jul-04 16:30N 71°08' E 027°34'715.2
2018-Jul-04 16:00N 71°03' E 027°16'612.3
2018-Jul-04 15:30N 70°57' E 027°18'0 0.6
2018-Jul-04 14:59N 70°58' E 027°18'714.4
2018-Jul-04 14:30N 70°59' E 026°57'815.2
2018-Jul-04 13:59N 70°59' E 026°33'815.5
2018-Jul-04 13:30N 70°58' E 026°10'4 7.7
2018-Jul-04 13:00N 70°59' E 025°58'0 0.0
2018-Jul-04 12:28N 70°59' E 025°58'0 0.0
2018-Jul-04 11:58N 70°59' E 025°58'0 0.0
2018-Jul-04 11:28N 70°59' E 025°58'9 3.0
2018-Jul-04 08:26N 70°56' E 025°31'613.8
2018-Jul-04 07:59N 70°59' E 025°15'714.8
2018-Jul-04 07:29N 70°60' E 024°52'4 7.2
2018-Jul-04 07:00N 70°60' E 024°41'1 2.6
2018-Jul-04 06:30N 71°01' E 024°40'612.2
2018-Jul-04 06:00N 70°59' E 024°23'714.1
2018-Jul-04 05:30N 70°54' E 024°07'713.9
2018-Jul-04 05:00N 70°49' E 023°52'713.1
2018-Jul-04 04:29N 70°44' E 023°38'4 9.2
2018-Jul-04 04:00N 70°40' E 023°41'0 0.1
2018-Jul-04 03:30N 70°40' E 023°41'2 4.4
2018-Jul-04 02:59N 70°39' E 023°34'713.9
2018-Jul-04 02:30N 70°36' E 023°16'714.2
2018-Jul-04 02:00N 70°32' E 022°60'714.4
2018-Jul-04 01:30N 70°27' E 022°42'714.3
2018-Jul-04 01:00N 70°23' E 022°25'713.5
2018-Jul-04 00:30N 70°17' E 022°19'3 5.2
2018-Jul-04 00:00N 70°14' E 022°21'5 9.4
2018-Jul-03 23:30N 70°18' E 022°13'815.4
2018-Jul-03 23:00N 70°22' E 021°54'612.4
2018-Jul-03 22:30N 70°22' E 021°35'715.0
2018-Jul-03 22:00N 70°17' E 021°20'713.8
2018-Jul-03 21:30N 70°11' E 021°07'8 5.4
2018-Jul-03 20:04N 70°04' E 021°01'113.0
2018-Jul-03 20:00N 70°04' E 020°58'714.1
2018-Jul-03 19:30N 70°01' E 020°39'714.8
2018-Jul-03 19:00N 69°59' E 020°18'714.7
2018-Jul-03 18:30N 69°55' E 020°00'714.5
2018-Jul-03 18:00N 69°51' E 019°43'714.9
2018-Jul-03 17:30N 69°48' E 019°23'714.9
2018-Jul-03 17:00N 69°45' E 019°04'612.3
2018-Jul-03 16:29N 69°39' E 018°58'0 0.0
2018-Jul-03 15:58N 69°39' E 018°58'0 0.0
2018-Jul-03 15:28N 69°39' E 018°58'  

Dump ship's entire track history